sensor_id;sensor_type;location;lat;lon;timestamp;temperature;humidity
11538;DHT22;50159;49.426;11.182;2023-03-14T00:01:16;8.90;99.90
11538;DHT22;50159;49.426;11.182;2023-03-14T00:03:44;8.90;99.90
11538;DHT22;50159;49.426;11.182;2023-03-14T00:06:12;8.90;99.90
11538;DHT22;50159;49.426;11.182;2023-03-14T00:08:41;8.90;99.90
11538;DHT22;50159;49.426;11.182;2023-03-14T00:11:27;8.90;99.90
11538;DHT22;50159;49.426;11.182;2023-03-14T00:13:55;8.90;99.90
11538;DHT22;50159;49.426;11.182;2023-03-14T00:16:22;8.90;99.90
11538;DHT22;50159;49.426;11.182;2023-03-14T00:18:49;8.90;99.90
11538;DHT22;50159;49.426;11.182;2023-03-14T00:21:16;8.90;99.90
11538;DHT22;50159;49.426;11.182;2023-03-14T00:23:43;8.90;99.90
11538;DHT22;50159;49.426;11.182;2023-03-14T00:26:15;8.90;99.90
11538;DHT22;50159;49.426;11.182;2023-03-14T00:28:43;8.90;99.90
11538;DHT22;50159;49.426;11.182;2023-03-14T00:31:13;8.90;99.90
11538;DHT22;50159;49.426;11.182;2023-03-14T00:33:42;8.80;99.90
11538;DHT22;50159;49.426;11.182;2023-03-14T00:36:12;8.80;99.90
11538;DHT22;50159;49.426;11.182;2023-03-14T00:38:41;8.90;99.90
11538;DHT22;50159;49.426;11.182;2023-03-14T00:41:12;8.80;99.90
11538;DHT22;50159;49.426;11.182;2023-03-14T00:43:40;8.80;99.90
11538;DHT22;50159;49.426;11.182;2023-03-14T00:46:07;8.80;99.90
11538;DHT22;50159;49.426;11.182;2023-03-14T00:48:35;8.90;99.90
11538;DHT22;50159;49.426;11.182;2023-03-14T00:51:03;8.90;99.90
11538;DHT22;50159;49.426;11.182;2023-03-14T00:53:35;8.90;99.90
11538;DHT22;50159;49.426;11.182;2023-03-14T00:56:05;8.90;99.90
11538;DHT22;50159;49.426;11.182;2023-03-14T00:58:34;8.90;99.90
11538;DHT22;50159;49.426;11.182;2023-03-14T01:01:13;8.90;99.90
11538;DHT22;50159;49.426;11.182;2023-03-14T01:03:42;8.90;99.90
11538;DHT22;50159;49.426;11.182;2023-03-14T01:06:17;8.90;99.90
11538;DHT22;50159;49.426;11.182;2023-03-14T01:08:46;8.90;99.90
11538;DHT22;50159;49.426;11.182;2023-03-14T01:11:34;8.90;99.90
11538;DHT22;50159;49.426;11.182;2023-03-14T01:14:02;8.90;99.90
11538;DHT22;50159;49.426;11.182;2023-03-14T01:16:32;8.90;99.90
11538;DHT22;50159;49.426;11.182;2023-03-14T01:19:05;8.90;99.90
11538;DHT22;50159;49.426;11.182;2023-03-14T01:21:34;8.90;99.90
11538;DHT22;50159;49.426;11.182;2023-03-14T01:24:04;8.90;99.90
11538;DHT22;50159;49.426;11.182;2023-03-14T01:26:33;8.90;99.90
11538;DHT22;50159;49.426;11.182;2023-03-14T01:29:02;8.80;99.90
11538;DHT22;50159;49.426;11.182;2023-03-14T01:31:30;8.80;99.90
11538;DHT22;50159;49.426;11.182;2023-03-14T01:33:57;8.80;99.90
11538;DHT22;50159;49.426;11.182;2023-03-14T01:36:24;8.80;99.90
11538;DHT22;50159;49.426;11.182;2023-03-14T01:38:50;8.80;99.90
11538;DHT22;50159;49.426;11.182;2023-03-14T01:41:23;8.80;99.90
11538;DHT22;50159;49.426;11.182;2023-03-14T01:43:52;8.80;99.90
11538;DHT22;50159;49.426;11.182;2023-03-14T01:46:40;8.80;99.90
11538;DHT22;50159;49.426;11.182;2023-03-14T01:52:10;8.80;99.90
11538;DHT22;50159;49.426;11.182;2023-03-14T01:55:07;8.80;99.90
11538;DHT22;50159;49.426;11.182;2023-03-14T01:57:43;8.80;99.90
11538;DHT22;50159;49.426;11.182;2023-03-14T02:00:15;8.80;99.90
11538;DHT22;50159;49.426;11.182;2023-03-14T02:02:48;8.80;99.90
11538;DHT22;50159;49.426;11.182;2023-03-14T02:05:24;8.80;99.90
11538;DHT22;50159;49.426;11.182;2023-03-14T02:07:55;8.80;99.90
11538;DHT22;50159;49.426;11.182;2023-03-14T02:10:29;8.80;99.90
11538;DHT22;50159;49.426;11.182;2023-03-14T02:13:00;8.80;99.90
11538;DHT22;50159;49.426;11.182;2023-03-14T02:15:30;8.80;99.90
11538;DHT22;50159;49.426;11.182;2023-03-14T02:17:57;8.80;99.90
11538;DHT22;50159;49.426;11.182;2023-03-14T02:23:12;8.80;99.90
11538;DHT22;50159;49.426;11.182;2023-03-14T02:25:58;8.80;99.90
11538;DHT22;50159;49.426;11.182;2023-03-14T02:28:29;8.80;99.90
11538;DHT22;50159;49.426;11.182;2023-03-14T02:30:56;8.80;99.90
11538;DHT22;50159;49.426;11.182;2023-03-14T02:33:23;8.80;99.90
11538;DHT22;50159;49.426;11.182;2023-03-14T02:35:51;8.80;99.90
11538;DHT22;50159;49.426;11.182;2023-03-14T02:41:22;8.80;99.90
11538;DHT22;50159;49.426;11.182;2023-03-14T02:43:48;8.80;99.90
11538;DHT22;50159;49.426;11.182;2023-03-14T02:46:20;8.80;99.90
11538;DHT22;50159;49.426;11.182;2023-03-14T02:48:54;8.80;99.90
11538;DHT22;50159;49.426;11.182;2023-03-14T02:51:28;8.80;99.90
11538;DHT22;50159;49.426;11.182;2023-03-14T02:53:56;8.80;99.90
11538;DHT22;50159;49.426;11.182;2023-03-14T02:56:23;8.80;99.90
11538;DHT22;50159;49.426;11.182;2023-03-14T02:58:50;8.80;99.90
11538;DHT22;50159;49.426;11.182;2023-03-14T03:01:17;8.80;99.90
11538;DHT22;50159;49.426;11.182;2023-03-14T03:03:44;8.70;99.90
11538;DHT22;50159;49.426;11.182;2023-03-14T03:06:10;8.70;99.90
11538;DHT22;50159;49.426;11.182;2023-03-14T03:08:38;8.70;99.90
11538;DHT22;50159;49.426;11.182;2023-03-14T03:11:05;8.70;99.90
11538;DHT22;50159;49.426;11.182;2023-03-14T03:13:32;8.70;99.90
11538;DHT22;50159;49.426;11.182;2023-03-14T03:15:59;8.70;99.90
11538;DHT22;50159;49.426;11.182;2023-03-14T03:18:26;8.60;99.90
11538;DHT22;50159;49.426;11.182;2023-03-14T03:20:53;8.60;99.90
11538;DHT22;50159;49.426;11.182;2023-03-14T03:23:20;8.60;99.90
11538;DHT22;50159;49.426;11.182;2023-03-14T03:25:50;8.50;99.90
11538;DHT22;50159;49.426;11.182;2023-03-14T03:28:18;8.60;99.90
11538;DHT22;50159;49.426;11.182;2023-03-14T03:30:45;8.50;99.90
11538;DHT22;50159;49.426;11.182;2023-03-14T03:33:12;8.50;99.90
11538;DHT22;50159;49.426;11.182;2023-03-14T03:35:46;8.50;99.90
11538;DHT22;50159;49.426;11.182;2023-03-14T03:38:16;8.50;99.90
11538;DHT22;50159;49.426;11.182;2023-03-14T03:40:43;8.50;99.90
11538;DHT22;50159;49.426;11.182;2023-03-14T03:43:09;8.50;99.90
11538;DHT22;50159;49.426;11.182;2023-03-14T03:45:36;8.50;99.90
11538;DHT22;50159;49.426;11.182;2023-03-14T03:48:03;8.40;99.90
11538;DHT22;50159;49.426;11.182;2023-03-14T03:50:30;8.40;99.90
11538;DHT22;50159;49.426;11.182;2023-03-14T03:52:57;8.40;99.90
11538;DHT22;50159;49.426;11.182;2023-03-14T03:55:24;8.40;99.90
11538;DHT22;50159;49.426;11.182;2023-03-14T03:57:52;8.40;99.90
11538;DHT22;50159;49.426;11.182;2023-03-14T04:00:19;8.30;99.90
11538;DHT22;50159;49.426;11.182;2023-03-14T04:02:45;8.30;99.90
11538;DHT22;50159;49.426;11.182;2023-03-14T04:05:13;8.30;99.90
11538;DHT22;50159;49.426;11.182;2023-03-14T04:07:39;8.30;99.90
11538;DHT22;50159;49.426;11.182;2023-03-14T04:10:07;8.30;99.90
11538;DHT22;50159;49.426;11.182;2023-03-14T04:12:35;8.30;99.90
11538;DHT22;50159;49.426;11.182;2023-03-14T04:15:02;8.30;99.90
11538;DHT22;50159;49.426;11.182;2023-03-14T04:17:28;8.20;99.90
11538;DHT22;50159;49.426;11.182;2023-03-14T04:19:55;8.20;99.90
11538;DHT22;50159;49.426;11.182;2023-03-14T04:22:22;8.20;99.90
11538;DHT22;50159;49.426;11.182;2023-03-14T04:24:49;8.10;99.90
11538;DHT22;50159;49.426;11.182;2023-03-14T04:27:15;8.20;99.90
11538;DHT22;50159;49.426;11.182;2023-03-14T04:29:42;8.20;99.90
11538;DHT22;50159;49.426;11.182;2023-03-14T04:32:09;8.10;99.90
11538;DHT22;50159;49.426;11.182;2023-03-14T04:34:36;8.10;99.90
11538;DHT22;50159;49.426;11.182;2023-03-14T04:37:03;8.10;99.90
11538;DHT22;50159;49.426;11.182;2023-03-14T04:39:30;8.10;99.90
11538;DHT22;50159;49.426;11.182;2023-03-14T04:41:57;8.10;99.90
11538;DHT22;50159;49.426;11.182;2023-03-14T04:44:24;8.00;99.90
11538;DHT22;50159;49.426;11.182;2023-03-14T04:46:50;8.00;99.90
11538;DHT22;50159;49.426;11.182;2023-03-14T04:49:17;8.10;99.90
11538;DHT22;50159;49.426;11.182;2023-03-14T04:51:44;8.00;99.90
11538;DHT22;50159;49.426;11.182;2023-03-14T04:54:11;8.00;99.90
11538;DHT22;50159;49.426;11.182;2023-03-14T04:56:38;8.00;99.90
11538;DHT22;50159;49.426;11.182;2023-03-14T04:59:05;8.00;99.90
11538;DHT22;50159;49.426;11.182;2023-03-14T05:01:31;8.00;99.90
11538;DHT22;50159;49.426;11.182;2023-03-14T05:03:58;8.00;99.90
11538;DHT22;50159;49.426;11.182;2023-03-14T05:06:25;8.00;99.90
11538;DHT22;50159;49.426;11.182;2023-03-14T05:08:52;8.00;99.90
11538;DHT22;50159;49.426;11.182;2023-03-14T05:11:18;8.00;99.90
11538;DHT22;50159;49.426;11.182;2023-03-14T05:13:45;8.00;99.90
11538;DHT22;50159;49.426;11.182;2023-03-14T05:16:12;8.00;99.90
11538;DHT22;50159;49.426;11.182;2023-03-14T05:18:39;8.00;99.90
11538;DHT22;50159;49.426;11.182;2023-03-14T05:21:06;7.90;99.90
11538;DHT22;50159;49.426;11.182;2023-03-14T05:23:32;7.90;99.90
11538;DHT22;50159;49.426;11.182;2023-03-14T05:25:59;7.90;99.90
11538;DHT22;50159;49.426;11.182;2023-03-14T05:28:26;8.00;99.90
11538;DHT22;50159;49.426;11.182;2023-03-14T05:30:53;7.90;99.90
11538;DHT22;50159;49.426;11.182;2023-03-14T05:33:20;7.90;99.90
11538;DHT22;50159;49.426;11.182;2023-03-14T05:35:47;7.90;99.90
11538;DHT22;50159;49.426;11.182;2023-03-14T05:38:14;7.90;99.90
11538;DHT22;50159;49.426;11.182;2023-03-14T05:40:40;7.90;99.90
11538;DHT22;50159;49.426;11.182;2023-03-14T05:43:07;7.90;99.90
11538;DHT22;50159;49.426;11.182;2023-03-14T05:45:34;7.90;99.90
11538;DHT22;50159;49.426;11.182;2023-03-14T05:48:01;7.80;99.90
11538;DHT22;50159;49.426;11.182;2023-03-14T05:50:28;7.80;99.90
11538;DHT22;50159;49.426;11.182;2023-03-14T05:52:55;7.80;99.90
11538;DHT22;50159;49.426;11.182;2023-03-14T05:55:22;7.80;99.90
11538;DHT22;50159;49.426;11.182;2023-03-14T05:57:49;7.80;99.90
11538;DHT22;50159;49.426;11.182;2023-03-14T06:00:16;7.80;99.90
11538;DHT22;50159;49.426;11.182;2023-03-14T06:02:43;7.80;99.90
11538;DHT22;50159;49.426;11.182;2023-03-14T06:05:10;7.70;99.90
11538;DHT22;50159;49.426;11.182;2023-03-14T06:07:37;7.80;99.90
11538;DHT22;50159;49.426;11.182;2023-03-14T06:10:05;7.80;99.90
11538;DHT22;50159;49.426;11.182;2023-03-14T06:12:32;7.80;99.90
11538;DHT22;50159;49.426;11.182;2023-03-14T06:14:59;7.80;99.90
11538;DHT22;50159;49.426;11.182;2023-03-14T06:17:26;7.90;99.90
11538;DHT22;50159;49.426;11.182;2023-03-14T06:19:53;7.90;99.90
11538;DHT22;50159;49.426;11.182;2023-03-14T06:22:19;7.90;99.90
11538;DHT22;50159;49.426;11.182;2023-03-14T06:24:46;7.90;99.90
11538;DHT22;50159;49.426;11.182;2023-03-14T06:27:13;7.90;99.90
11538;DHT22;50159;49.426;11.182;2023-03-14T06:29:40;7.90;99.90
11538;DHT22;50159;49.426;11.182;2023-03-14T06:32:06;8.00;99.90
11538;DHT22;50159;49.426;11.182;2023-03-14T06:34:33;8.00;99.90
11538;DHT22;50159;49.426;11.182;2023-03-14T06:37:00;8.00;99.90
11538;DHT22;50159;49.426;11.182;2023-03-14T06:39:27;8.00;99.90
11538;DHT22;50159;49.426;11.182;2023-03-14T06:41:53;8.00;99.90
11538;DHT22;50159;49.426;11.182;2023-03-14T06:44:20;8.10;99.90
11538;DHT22;50159;49.426;11.182;2023-03-14T06:46:47;8.10;99.90
11538;DHT22;50159;49.426;11.182;2023-03-14T06:49:14;8.10;99.90
11538;DHT22;50159;49.426;11.182;2023-03-14T06:51:40;8.10;99.90
11538;DHT22;50159;49.426;11.182;2023-03-14T06:54:07;8.10;99.90
11538;DHT22;50159;49.426;11.182;2023-03-14T06:56:35;8.20;99.90
11538;DHT22;50159;49.426;11.182;2023-03-14T06:59:02;8.20;99.90
11538;DHT22;50159;49.426;11.182;2023-03-14T07:01:30;8.30;99.90
11538;DHT22;50159;49.426;11.182;2023-03-14T07:03:59;8.30;99.90
11538;DHT22;50159;49.426;11.182;2023-03-14T07:06:25;8.30;99.90
11538;DHT22;50159;49.426;11.182;2023-03-14T07:08:52;8.40;99.90
11538;DHT22;50159;49.426;11.182;2023-03-14T07:11:19;8.40;99.90
11538;DHT22;50159;49.426;11.182;2023-03-14T07:13:46;8.50;99.90
11538;DHT22;50159;49.426;11.182;2023-03-14T07:16:13;8.50;99.90
11538;DHT22;50159;49.426;11.182;2023-03-14T07:18:40;8.60;99.90
11538;DHT22;50159;49.426;11.182;2023-03-14T07:21:07;8.60;99.90
11538;DHT22;50159;49.426;11.182;2023-03-14T07:23:35;8.70;99.90
11538;DHT22;50159;49.426;11.182;2023-03-14T07:26:02;8.70;99.90
11538;DHT22;50159;49.426;11.182;2023-03-14T07:28:30;8.70;99.90
11538;DHT22;50159;49.426;11.182;2023-03-14T07:30:57;8.80;99.90
11538;DHT22;50159;49.426;11.182;2023-03-14T07:33:23;8.80;99.90
11538;DHT22;50159;49.426;11.182;2023-03-14T07:35:50;8.80;99.90
11538;DHT22;50159;49.426;11.182;2023-03-14T07:38:17;8.80;99.90
11538;DHT22;50159;49.426;11.182;2023-03-14T07:40:48;8.80;99.90
11538;DHT22;50159;49.426;11.182;2023-03-14T07:43:15;8.80;99.90
11538;DHT22;50159;49.426;11.182;2023-03-14T07:45:46;8.80;99.90
11538;DHT22;50159;49.426;11.182;2023-03-14T07:48:16;8.80;99.90
11538;DHT22;50159;49.426;11.182;2023-03-14T07:50:43;8.90;99.90
11538;DHT22;50159;49.426;11.182;2023-03-14T07:53:10;8.90;99.90
11538;DHT22;50159;49.426;11.182;2023-03-14T07:55:37;8.90;99.90
11538;DHT22;50159;49.426;11.182;2023-03-14T07:58:06;8.90;99.90
11538;DHT22;50159;49.426;11.182;2023-03-14T08:00:33;8.90;99.90
11538;DHT22;50159;49.426;11.182;2023-03-14T08:02:59;8.90;99.90
11538;DHT22;50159;49.426;11.182;2023-03-14T08:05:27;8.90;99.90
11538;DHT22;50159;49.426;11.182;2023-03-14T08:07:54;8.90;99.90
11538;DHT22;50159;49.426;11.182;2023-03-14T08:10:21;9.00;99.90
11538;DHT22;50159;49.426;11.182;2023-03-14T08:12:54;9.00;99.90
11538;DHT22;50159;49.426;11.182;2023-03-14T08:15:23;9.10;99.90
11538;DHT22;50159;49.426;11.182;2023-03-14T08:17:50;9.30;99.90
11538;DHT22;50159;49.426;11.182;2023-03-14T08:20:20;9.40;99.90
11538;DHT22;50159;49.426;11.182;2023-03-14T08:22:48;9.50;99.90
11538;DHT22;50159;49.426;11.182;2023-03-14T08:25:16;9.70;99.90
11538;DHT22;50159;49.426;11.182;2023-03-14T08:27:43;9.80;99.90
11538;DHT22;50159;49.426;11.182;2023-03-14T08:30:13;9.90;99.90
11538;DHT22;50159;49.426;11.182;2023-03-14T08:32:41;10.00;99.90
11538;DHT22;50159;49.426;11.182;2023-03-14T08:35:09;10.10;99.90
11538;DHT22;50159;49.426;11.182;2023-03-14T08:37:36;10.40;99.90
11538;DHT22;50159;49.426;11.182;2023-03-14T08:40:06;10.50;99.90
11538;DHT22;50159;49.426;11.182;2023-03-14T08:42:35;10.60;99.90
11538;DHT22;50159;49.426;11.182;2023-03-14T08:45:04;10.60;99.90
11538;DHT22;50159;49.426;11.182;2023-03-14T08:47:32;10.60;99.90
11538;DHT22;50159;49.426;11.182;2023-03-14T08:49:59;10.60;99.90
11538;DHT22;50159;49.426;11.182;2023-03-14T08:52:26;10.60;99.90
11538;DHT22;50159;49.426;11.182;2023-03-14T08:54:52;10.60;99.90
11538;DHT22;50159;49.426;11.182;2023-03-14T08:57:19;10.70;99.90
11538;DHT22;50159;49.426;11.182;2023-03-14T08:59:51;10.80;99.90
11538;DHT22;50159;49.426;11.182;2023-03-14T09:02:17;10.80;99.90
11538;DHT22;50159;49.426;11.182;2023-03-14T09:04:44;10.90;99.90
11538;DHT22;50159;49.426;11.182;2023-03-14T09:07:11;10.90;99.90
11538;DHT22;50159;49.426;11.182;2023-03-14T09:09:38;10.90;99.90
11538;DHT22;50159;49.426;11.182;2023-03-14T09:12:05;10.90;99.90
11538;DHT22;50159;49.426;11.182;2023-03-14T09:14:32;11.00;99.90
11538;DHT22;50159;49.426;11.182;2023-03-14T09:16:59;11.00;99.90
11538;DHT22;50159;49.426;11.182;2023-03-14T09:19:26;11.00;99.90
11538;DHT22;50159;49.426;11.182;2023-03-14T09:21:52;11.00;99.90
11538;DHT22;50159;49.426;11.182;2023-03-14T09:24:20;11.00;99.90
11538;DHT22;50159;49.426;11.182;2023-03-14T09:26:47;11.00;99.90
11538;DHT22;50159;49.426;11.182;2023-03-14T09:29:14;11.10;99.90
11538;DHT22;50159;49.426;11.182;2023-03-14T09:31:41;11.20;99.90
11538;DHT22;50159;49.426;11.182;2023-03-14T09:34:08;11.40;99.90
11538;DHT22;50159;49.426;11.182;2023-03-14T09:36:34;11.60;99.90
11538;DHT22;50159;49.426;11.182;2023-03-14T09:39:01;11.70;99.90
11538;DHT22;50159;49.426;11.182;2023-03-14T09:41:33;11.90;99.90
11538;DHT22;50159;49.426;11.182;2023-03-14T09:44:14;12.20;99.90
11538;DHT22;50159;49.426;11.182;2023-03-14T09:46:47;12.30;99.90
11538;DHT22;50159;49.426;11.182;2023-03-14T09:49:33;12.40;99.90
11538;DHT22;50159;49.426;11.182;2023-03-14T09:52:07;12.50;99.90
11538;DHT22;50159;49.426;11.182;2023-03-14T09:54:47;12.50;99.60
11538;DHT22;50159;49.426;11.182;2023-03-14T09:57:21;12.40;99.00
11538;DHT22;50159;49.426;11.182;2023-03-14T09:59:53;12.30;99.00
11538;DHT22;50159;49.426;11.182;2023-03-14T10:02:26;12.20;99.10
11538;DHT22;50159;49.426;11.182;2023-03-14T10:05:00;12.10;99.00
11538;DHT22;50159;49.426;11.182;2023-03-14T10:07:32;11.90;98.90
11538;DHT22;50159;49.426;11.182;2023-03-14T10:10:00;11.80;99.60
11538;DHT22;50159;49.426;11.182;2023-03-14T10:12:32;11.70;99.90
11538;DHT22;50159;49.426;11.182;2023-03-14T10:15:14;11.70;99.90
11538;DHT22;50159;49.426;11.182;2023-03-14T10:17:59;11.60;99.90
11538;DHT22;50159;49.426;11.182;2023-03-14T10:20:37;11.50;99.90
11538;DHT22;50159;49.426;11.182;2023-03-14T10:25:43;11.50;99.90
11538;DHT22;50159;49.426;11.182;2023-03-14T10:28:26;11.50;99.90
11538;DHT22;50159;49.426;11.182;2023-03-14T10:30:55;11.50;99.90
11538;DHT22;50159;49.426;11.182;2023-03-14T10:33:26;11.60;99.60
11538;DHT22;50159;49.426;11.182;2023-03-14T10:36:23;11.80;99.90
11538;DHT22;50159;49.426;11.182;2023-03-14T10:39:04;12.00;99.60
11538;DHT22;50159;49.426;11.182;2023-03-14T10:41:51;12.10;98.80
11538;DHT22;50159;49.426;11.182;2023-03-14T10:44:22;12.20;98.90
11538;DHT22;50159;49.426;11.182;2023-03-14T10:46:58;12.20;98.80
11538;DHT22;50159;49.426;11.182;2023-03-14T10:49:35;12.30;99.00
11538;DHT22;50159;49.426;11.182;2023-03-14T10:54:53;12.30;97.60
11538;DHT22;50159;49.426;11.182;2023-03-14T10:57:23;12.30;97.70
11538;DHT22;50159;49.426;11.182;2023-03-14T10:59:51;12.20;97.50
11538;DHT22;50159;49.426;11.182;2023-03-14T11:05:18;12.20;95.00
11538;DHT22;50159;49.426;11.182;2023-03-14T11:07:56;12.10;94.90
11538;DHT22;50159;49.426;11.182;2023-03-14T11:10:43;12.00;95.20
11538;DHT22;50159;49.426;11.182;2023-03-14T11:16:01;12.00;94.20
11538;DHT22;50159;49.426;11.182;2023-03-14T11:19:01;11.90;95.00
11538;DHT22;50159;49.426;11.182;2023-03-14T11:21:56;11.90;94.90
11538;DHT22;50159;49.426;11.182;2023-03-14T11:24:44;11.80;95.00
11538;DHT22;50159;49.426;11.182;2023-03-14T11:30:24;11.70;95.20
11538;DHT22;50159;49.426;11.182;2023-03-14T11:33:13;11.70;95.60
11538;DHT22;50159;49.426;11.182;2023-03-14T11:35:58;11.70;96.80
11538;DHT22;50159;49.426;11.182;2023-03-14T11:38:48;11.70;98.50
11538;DHT22;50159;49.426;11.182;2023-03-14T11:42:08;11.70;99.90
11538;DHT22;50159;49.426;11.182;2023-03-14T11:44:31;11.80;99.90
11538;DHT22;50159;49.426;11.182;2023-03-14T11:47:21;12.10;99.90
11538;DHT22;50159;49.426;11.182;2023-03-14T11:50:21;12.50;99.90
11538;DHT22;50159;49.426;11.182;2023-03-14T11:52:54;13.00;99.90
11538;DHT22;50159;49.426;11.182;2023-03-14T11:55:43;13.50;99.90
11538;DHT22;50159;49.426;11.182;2023-03-14T11:58:24;13.80;99.90
11538;DHT22;50159;49.426;11.182;2023-03-14T12:00:55;14.10;99.90
11538;DHT22;50159;49.426;11.182;2023-03-14T12:06:51;15.10;99.90
11538;DHT22;50159;49.426;11.182;2023-03-14T12:09:20;15.30;93.80
11538;DHT22;50159;49.426;11.182;2023-03-14T12:11:54;14.90;89.70
11538;DHT22;50159;49.426;11.182;2023-03-14T12:14:31;14.70;87.50
11538;DHT22;50159;49.426;11.182;2023-03-14T12:17:07;14.40;88.10
11538;DHT22;50159;49.426;11.182;2023-03-14T12:19:46;14.10;88.20
11538;DHT22;50159;49.426;11.182;2023-03-14T12:22:28;13.90;90.10
11538;DHT22;50159;49.426;11.182;2023-03-14T12:25:21;13.80;89.30
11538;DHT22;50159;49.426;11.182;2023-03-14T12:30:30;13.50;90.70
11538;DHT22;50159;49.426;11.182;2023-03-14T12:43:39;13.60;84.40
11538;DHT22;50159;49.426;11.182;2023-03-14T12:48:45;13.60;83.40
11538;DHT22;50159;49.426;11.182;2023-03-14T12:51:16;13.60;82.50
11538;DHT22;50159;49.426;11.182;2023-03-14T13:00:16;13.50;82.00
11538;DHT22;50159;49.426;11.182;2023-03-14T13:02:46;13.30;82.30
11538;DHT22;50159;49.426;11.182;2023-03-14T13:05:19;13.20;82.60
11538;DHT22;50159;49.426;11.182;2023-03-14T13:10:22;12.90;83.90
11538;DHT22;50159;49.426;11.182;2023-03-14T13:12:57;12.90;87.60
11538;DHT22;50159;49.426;11.182;2023-03-14T13:15:43;12.60;92.40
11538;DHT22;50159;49.426;11.182;2023-03-14T13:21:02;12.00;98.80
11538;DHT22;50159;49.426;11.182;2023-03-14T13:24:03;11.60;99.90
11538;DHT22;50159;49.426;11.182;2023-03-14T13:26:36;11.40;99.90
11538;DHT22;50159;49.426;11.182;2023-03-14T13:29:31;11.20;99.90
11538;DHT22;50159;49.426;11.182;2023-03-14T13:32:00;11.10;99.90
11538;DHT22;50159;49.426;11.182;2023-03-14T13:34:37;11.00;99.90
11538;DHT22;50159;49.426;11.182;2023-03-14T13:37:03;10.90;99.90
11538;DHT22;50159;49.426;11.182;2023-03-14T13:39:30;10.90;99.90
11538;DHT22;50159;49.426;11.182;2023-03-14T13:42:00;10.80;99.90
11538;DHT22;50159;49.426;11.182;2023-03-14T13:44:31;12.30;99.90
11538;DHT22;50159;49.426;11.182;2023-03-14T13:47:03;10.50;99.90
11538;DHT22;50159;49.426;11.182;2023-03-14T13:49:32;10.40;99.90
11538;DHT22;50159;49.426;11.182;2023-03-14T13:52:03;10.40;99.90
11538;DHT22;50159;49.426;11.182;2023-03-14T13:54:31;10.30;99.90
11538;DHT22;50159;49.426;11.182;2023-03-14T13:57:03;10.20;99.90
11538;DHT22;50159;49.426;11.182;2023-03-14T13:59:33;10.20;99.90
11538;DHT22;50159;49.426;11.182;2023-03-14T14:02:12;10.10;99.90
11538;DHT22;50159;49.426;11.182;2023-03-14T14:04:44;10.00;99.90
11538;DHT22;50159;49.426;11.182;2023-03-14T14:07:17;9.90;99.90
11538;DHT22;50159;49.426;11.182;2023-03-14T14:09:49;9.90;99.90
11538;DHT22;50159;49.426;11.182;2023-03-14T14:12:28;8.20;99.90
11538;DHT22;50159;49.426;11.182;2023-03-14T14:15:17;9.70;99.90
11538;DHT22;50159;49.426;11.182;2023-03-14T14:17:51;9.70;99.90
11538;DHT22;50159;49.426;11.182;2023-03-14T14:20:30;9.70;99.90
11538;DHT22;50159;49.426;11.182;2023-03-14T14:23:11;9.60;99.90
11538;DHT22;50159;49.426;11.182;2023-03-14T14:25:39;9.60;99.90
11538;DHT22;50159;49.426;11.182;2023-03-14T14:28:31;9.60;99.90
11538;DHT22;50159;49.426;11.182;2023-03-14T14:31:15;9.60;99.90
11538;DHT22;50159;49.426;11.182;2023-03-14T14:33:56;9.60;99.90
11538;DHT22;50159;49.426;11.182;2023-03-14T14:36:32;9.60;99.90
11538;DHT22;50159;49.426;11.182;2023-03-14T14:39:14;9.60;99.90
11538;DHT22;50159;49.426;11.182;2023-03-14T14:41:44;9.50;99.90
11538;DHT22;50159;49.426;11.182;2023-03-14T14:44:18;9.40;99.90
11538;DHT22;50159;49.426;11.182;2023-03-14T14:46:51;9.30;99.90
11538;DHT22;50159;49.426;11.182;2023-03-14T14:49:19;9.20;99.90
11538;DHT22;50159;49.426;11.182;2023-03-14T14:51:50;9.10;99.90
11538;DHT22;50159;49.426;11.182;2023-03-14T14:54:19;9.00;99.90
11538;DHT22;50159;49.426;11.182;2023-03-14T14:57:03;9.00;99.90
11538;DHT22;50159;49.426;11.182;2023-03-14T14:59:32;8.90;99.90
11538;DHT22;50159;49.426;11.182;2023-03-14T15:02:24;8.80;99.90
11538;DHT22;50159;49.426;11.182;2023-03-14T15:04:55;8.70;99.90
11538;DHT22;50159;49.426;11.182;2023-03-14T15:07:22;8.50;99.90
11538;DHT22;50159;49.426;11.182;2023-03-14T15:09:49;8.40;99.90
11538;DHT22;50159;49.426;11.182;2023-03-14T15:12:16;8.10;99.90
11538;DHT22;50159;49.426;11.182;2023-03-14T15:14:42;8.00;99.90
11538;DHT22;50159;49.426;11.182;2023-03-14T15:17:11;7.90;99.90
11538;DHT22;50159;49.426;11.182;2023-03-14T15:19:38;7.70;99.90
11538;DHT22;50159;49.426;11.182;2023-03-14T15:22:11;7.70;99.90
11538;DHT22;50159;49.426;11.182;2023-03-14T15:24:40;7.60;99.90
11538;DHT22;50159;49.426;11.182;2023-03-14T15:27:13;7.60;99.90
11538;DHT22;50159;49.426;11.182;2023-03-14T15:29:42;7.50;99.90
11538;DHT22;50159;49.426;11.182;2023-03-14T15:32:15;7.50;99.90
11538;DHT22;50159;49.426;11.182;2023-03-14T15:34:44;7.50;99.90
11538;DHT22;50159;49.426;11.182;2023-03-14T15:37:15;7.40;99.90
11538;DHT22;50159;49.426;11.182;2023-03-14T15:39:43;7.50;99.90
11538;DHT22;50159;49.426;11.182;2023-03-14T15:42:10;7.40;99.90
11538;DHT22;50159;49.426;11.182;2023-03-14T15:44:37;7.40;99.90
11538;DHT22;50159;49.426;11.182;2023-03-14T15:47:06;7.40;99.90
11538;DHT22;50159;49.426;11.182;2023-03-14T15:49:36;7.40;99.90
11538;DHT22;50159;49.426;11.182;2023-03-14T15:52:03;7.40;99.90
11538;DHT22;50159;49.426;11.182;2023-03-14T15:54:30;7.40;99.90
11538;DHT22;50159;49.426;11.182;2023-03-14T15:56:57;7.50;99.90
11538;DHT22;50159;49.426;11.182;2023-03-14T15:59:24;7.60;99.90
11538;DHT22;50159;49.426;11.182;2023-03-14T16:01:52;7.70;99.90
11538;DHT22;50159;49.426;11.182;2023-03-14T16:04:18;7.60;99.90
11538;DHT22;50159;49.426;11.182;2023-03-14T16:06:45;7.30;99.90
11538;DHT22;50159;49.426;11.182;2023-03-14T16:09:12;7.70;99.90
11538;DHT22;50159;49.426;11.182;2023-03-14T16:11:39;7.70;99.90
11538;DHT22;50159;49.426;11.182;2023-03-14T16:14:06;7.70;99.90
11538;DHT22;50159;49.426;11.182;2023-03-14T16:16:33;7.70;99.90
11538;DHT22;50159;49.426;11.182;2023-03-14T16:19:00;7.70;99.90
11538;DHT22;50159;49.426;11.182;2023-03-14T16:21:28;7.70;99.90
11538;DHT22;50159;49.426;11.182;2023-03-14T16:23:55;7.70;99.90
11538;DHT22;50159;49.426;11.182;2023-03-14T16:26:22;7.70;99.40
11538;DHT22;50159;49.426;11.182;2023-03-14T16:28:48;7.70;99.20
11538;DHT22;50159;49.426;11.182;2023-03-14T16:31:17;7.70;96.80
11538;DHT22;50159;49.426;11.182;2023-03-14T16:33:46;7.70;96.30
11538;DHT22;50159;49.426;11.182;2023-03-14T16:36:14;7.60;94.70
11538;DHT22;50159;49.426;11.182;2023-03-14T16:38:42;7.70;94.80
11538;DHT22;50159;49.426;11.182;2023-03-14T16:41:17;7.70;94.40
11538;DHT22;50159;49.426;11.182;2023-03-14T16:43:46;7.60;95.10